Fmt Urla — 9HA2401 — position and weather

sailwx.info

Track history (hours):
 
Tides and Currents Weather Stations Pressure Air Temp Water Temp Dewpoint Dewpoint Depression Visibility Wind Speed Wind Dir Waves Ship Positions

Fmt Urla

Last reported at 2017-Nov-20 00:03 UTC. Time now 2017-Nov-22 18:12 UTC.
Position N 37°34' E 000°10'.

Length 143 m; draft 8.2 m.

Type: Ship. MMSI: 248533000.

Date/timePositionNaut miles runAvg speedWind from/ knotsBaromVisibWave heightAir tempDewpointWater temp
2017-Nov-20 00:03N 37°34' E 000°10'310.9
2017-Nov-19 23:46N 37°34' E 000°06'1510.9
2017-Nov-19 22:24N 37°32' W 000°12'910.9
2017-Nov-19 21:35N 37°31' W 000°23'111.2
2017-Nov-19 21:30N 37°31' W 000°24'611.3
2017-Nov-19 21:01N 37°30' W 000°31'611.4
2017-Nov-19 20:29N 37°29' W 000°39'611.8
2017-Nov-19 20:00N 37°30' W 000°46'  
2017-Nov-17 03:54N 37°02' W 001°06'203 6.9
2017-Nov-15 22:19N 36°06' W 005°09'412.4
2017-Nov-15 22:00N 36°06' W 005°14'611.3
2017-Nov-15 21:30N 36°05' W 005°21'0 0.0
2017-Nov-15 15:03N 36°05' W 005°20'0 7.6
2017-Nov-15 15:00N 36°05' W 005°20'1 1.0
2017-Nov-15 14:30N 36°04' W 005°19'0 0.4
2017-Nov-15 14:01N 36°04' W 005°19'3 3.8
2017-Nov-15 13:08N 36°01' W 005°22'1 7.8
2017-Nov-15 13:00N 36°01' W 005°21'4 8.1
2017-Nov-15 12:31N 35°58' W 005°25'  
2017-Nov-11 22:02N 35°58' W 005°36'011.5
2017-Nov-11 22:00N 35°58' W 005°36'611.4
2017-Nov-11 21:30N 35°59' W 005°29'510.8
2017-Nov-11 21:00N 36°01' W 005°23'510.3
2017-Nov-11 20:30N 36°02' W 005°17'510.4
2017-Nov-11 19:59N 36°03' W 005°10'  
Track history (hours):
 
Tides and Currents Weather Stations Pressure Air Temp Water Temp Dewpoint Dewpoint Depression Visibility Wind Speed Wind Dir Waves Ship Positions

Fmt Urla

Last reported at 2017-Nov-20 00:03 UTC. Time now 2017-Nov-22 18:12 UTC.
Position N 37°34' E 000°10'.

Length 143 m; draft 8.2 m.

Type: Ship. MMSI: 248533000.

Date/timePositionNaut miles runAvg speedWind from/ knotsBaromVisibWave heightAir tempDewpointWater temp
2017-Nov-20 00:03N 37°34' E 000°10'310.9
2017-Nov-19 23:46N 37°34' E 000°06'1510.9
2017-Nov-19 22:24N 37°32' W 000°12'910.9
2017-Nov-19 21:35N 37°31' W 000°23'111.2
2017-Nov-19 21:30N 37°31' W 000°24'611.3
2017-Nov-19 21:01N 37°30' W 000°31'611.4
2017-Nov-19 20:29N 37°29' W 000°39'611.8
2017-Nov-19 20:00N 37°30' W 000°46'  
2017-Nov-17 03:54N 37°02' W 001°06'203 6.9
2017-Nov-15 22:19N 36°06' W 005°09'412.4
2017-Nov-15 22:00N 36°06' W 005°14'611.3
2017-Nov-15 21:30N 36°05' W 005°21'0 0.0
2017-Nov-15 15:03N 36°05' W 005°20'0 7.6
2017-Nov-15 15:00N 36°05' W 005°20'1 1.0
2017-Nov-15 14:30N 36°04' W 005°19'0 0.4
2017-Nov-15 14:01N 36°04' W 005°19'3 3.8
2017-Nov-15 13:08N 36°01' W 005°22'1 7.8
2017-Nov-15 13:00N 36°01' W 005°21'4 8.1
2017-Nov-15 12:31N 35°58' W 005°25'  
2017-Nov-11 22:02N 35°58' W 005°36'011.5
2017-Nov-11 22:00N 35°58' W 005°36'611.4
2017-Nov-11 21:30N 35°59' W 005°29'510.8
2017-Nov-11 21:00N 36°01' W 005°23'510.3
2017-Nov-11 20:30N 36°02' W 005°17'510.4
2017-Nov-11 19:59N 36°03' W 005°10'  

Dump ship's entire track history